Time;durP1;ratioP1;P1;durP2;ratioP2;P2;SDS_P1;SDS_P2;PMS_P1;PMS_P2;Temp;Humidity;BMP_temperature;BMP_pressure;BME280_temperature;BME280_humidity;BME280_pressure;Samples;Min_cycle;Max_cycle;Signal;HPM_P1;HPM_P2
2020/12/15 00:00:16;;;;;;;2.50;1.67;;;11.10;92.80;;;;;;2113790;28;20027;-75
2020/12/15 00:01:23;;;;;;;2.67;1.40;;;11.20;92.80;;;;;;2105336;28;20110;-76
2020/12/15 00:02:24;;;;;;;3.42;1.77;;;11.20;92.70;;;;;;2115260;27;20023;-78
2020/12/15 00:03:24;;;;;;;1.30;1.20;;;11.20;92.70;;;;;;2123069;27;20382;-76
2020/12/15 00:04:28;;;;;;;3.83;1.70;;;11.20;93.00;;;;;;2123104;27;20478;-78
2020/12/15 00:05:29;;;;;;;2.28;1.33;;;11.20;93.10;;;;;;2122973;27;20072;-75
2020/12/15 00:06:33;;;;;;;2.05;1.60;;;11.20;92.90;;;;;;2113825;28;20128;-77
2020/12/15 00:07:33;;;;;;;1.63;1.52;;;11.20;92.80;;;;;;2114288;27;20020;-77
2020/12/15 00:08:34;;;;;;;1.55;1.45;;;11.30;92.80;;;;;;2123165;27;20021;-77
2020/12/15 00:09:34;;;;;;;3.13;1.50;;;11.20;92.50;;;;;;2123236;27;20057;-78
2020/12/15 00:10:37;;;;;;;2.30;1.52;;;11.30;92.70;;;;;;2123040;27;20069;-77
2020/12/15 00:11:37;;;;;;;2.88;1.50;;;11.20;92.80;;;;;;2122503;27;20478;-77
2020/12/15 00:12:38;;;;;;;3.88;1.75;;;11.30;92.60;;;;;;2123153;27;20035;-77
2020/12/15 00:13:39;;;;;;;1.08;0.98;;;11.30;92.70;;;;;;2122421;27;20027;-76
2020/12/15 00:14:40;;;;;;;3.05;1.48;;;11.20;92.40;;;;;;2122358;27;20042;-78
2020/12/15 00:15:40;;;;;;;1.55;1.45;;;11.30;92.50;;;;;;2123133;27;20033;-77
2020/12/15 00:16:41;;;;;;;1.60;1.30;;;11.30;92.50;;;;;;2122892;27;20026;-76
2020/12/15 00:17:42;;;;;;;2.42;1.27;;;11.30;92.50;;;;;;2122830;27;20027;-76
2020/12/15 00:18:42;;;;;;;1.10;1.02;;;11.30;92.60;;;;;;2123015;27;20455;-76
2020/12/15 00:19:43;;;;;;;1.80;1.58;;;11.30;92.50;;;;;;2113760;28;20070;-77
2020/12/15 00:20:43;;;;;;;1.27;1.15;;;11.30;92.10;;;;;;2113708;28;20024;-76
2020/12/15 00:21:44;;;;;;;1.60;1.40;;;11.30;92.50;;;;;;2113561;28;20066;-77
2020/12/15 00:22:46;;;;;;;3.10;1.60;;;11.30;92.50;;;;;;2113792;28;20210;-76
2020/12/15 00:23:49;;;;;;;2.65;1.70;;;11.30;92.50;;;;;;2121844;27;20015;-77
2020/12/15 00:24:50;;;;;;;1.58;1.48;;;11.30;92.10;;;;;;2122772;27;20019;-76
2020/12/15 00:25:50;;;;;;;1.95;1.35;;;11.30;92.30;;;;;;2122989;27;20057;-78
2020/12/15 00:26:51;;;;;;;1.85;1.35;;;11.30;92.80;;;;;;2122812;27;20027;-78
2020/12/15 00:27:51;;;;;;;1.63;1.40;;;11.30;92.80;;;;;;2122943;27;20379;-78
2020/12/15 00:28:52;;;;;;;2.78;1.70;;;11.30;92.80;;;;;;2113238;28;20365;-78
2020/12/15 00:29:53;;;;;;;1.40;1.30;;;11.30;92.70;;;;;;2113956;28;20471;-76
2020/12/15 00:30:53;;;;;;;2.65;1.33;;;11.40;92.70;;;;;;2113566;28;20054;-77
2020/12/15 00:31:54;;;;;;;3.33;1.35;;;11.40;92.60;;;;;;2113580;28;20057;-76
2020/12/15 00:32:55;;;;;;;3.15;1.63;;;11.40;92.60;;;;;;2122804;27;20104;-75
2020/12/15 00:33:55;;;;;;;2.60;1.80;;;11.40;92.60;;;;;;2122806;27;20058;-77
2020/12/15 00:34:56;;;;;;;2.53;1.55;;;11.30;92.50;;;;;;2122687;27;20032;-75
2020/12/15 00:35:56;;;;;;;2.50;1.67;;;11.30;92.70;;;;;;2122846;27;20028;-76
2020/12/15 00:36:58;;;;;;;2.10;1.45;;;11.30;92.80;;;;;;2122612;27;20039;-77
2020/12/15 00:37:59;;;;;;;2.05;1.60;;;11.30;93.00;;;;;;2123038;27;20169;-76
2020/12/15 00:39:00;;;;;;;2.47;1.40;;;11.30;92.60;;;;;;2122631;27;20022;-77
2020/12/15 00:40:01;;;;;;;2.40;1.17;;;11.30;92.80;;;;;;2122693;27;20035;-78
2020/12/15 00:41:02;;;;;;;1.73;1.63;;;11.30;92.90;;;;;;2122755;27;20046;-76
2020/12/15 00:42:04;;;;;;;1.85;1.40;;;11.30;92.90;;;;;;2113315;28;20529;-78
2020/12/15 00:43:04;;;;;;;1.92;1.63;;;11.30;92.90;;;;;;2113729;27;20159;-77
2020/12/15 00:44:05;;;;;;;1.88;1.40;;;11.30;92.90;;;;;;2122804;27;20478;-77
2020/12/15 00:45:06;;;;;;;2.10;1.65;;;11.30;92.90;;;;;;2113488;28;20019;-76
2020/12/15 00:46:06;;;;;;;4.95;1.70;;;11.30;92.80;;;;;;2113653;28;20031;-79
2020/12/15 00:47:07;;;;;;;3.70;1.98;;;11.30;92.80;;;;;;2122682;27;20042;-77
2020/12/15 00:48:07;;;;;;;2.10;1.70;;;11.40;92.80;;;;;;2113720;28;20059;-76
2020/12/15 00:49:08;;;;;;;3.13;1.58;;;11.30;93.00;;;;;;2113475;28;20095;-79
2020/12/15 00:50:08;;;;;;;3.08;1.30;;;11.30;93.00;;;;;;2113699;28;20027;-77
2020/12/15 00:51:19;;;;;;;2.53;1.70;;;11.30;92.90;;;;;;2113628;28;20047;-77
2020/12/15 00:52:27;;;;;;;3.03;1.77;;;11.30;92.70;;;;;;2122349;27;20383;-77
2020/12/15 00:53:27;;;;;;;2.20;2.00;;;11.30;92.80;;;;;;2122663;27;20051;-77
2020/12/15 00:54:28;;;;;;;3.22;1.58;;;11.30;92.80;;;;;;2122952;27;20468;-76
2020/12/15 00:55:28;;;;;;;1.92;1.52;;;11.30;92.60;;;;;;2122609;27;20063;-77
2020/12/15 00:56:29;;;;;;;1.40;1.30;;;11.30;92.70;;;;;;2122688;27;20023;-76
2020/12/15 00:57:30;;;;;;;3.20;1.77;;;11.30;92.70;;;;;;2122310;27;20072;-76
2020/12/15 00:58:30;;;;;;;2.30;1.55;;;11.30;92.80;;;;;;2122555;27;20076;-77
2020/12/15 00:59:31;;;;;;;1.85;1.73;;;11.30;92.60;;;;;;2113334;28;20035;-75
2020/12/15 01:00:31;;;;;;;1.40;1.30;;;11.40;92.90;;;;;;2105252;28;20024;-75
2020/12/15 01:01:32;;;;;;;1.90;1.33;;;11.40;92.70;;;;;;2113106;28;20020;-78
2020/12/15 01:02:32;;;;;;;2.25;1.63;;;11.30;92.80;;;;;;2113475;28;20487;-77
2020/12/15 01:03:34;;;;;;;1.77;1.27;;;11.40;92.90;;;;;;2113388;28;20047;-77
2020/12/15 01:04:34;;;;;;;2.25;1.55;;;11.40;93.00;;;;;;2122688;27;20016;-79
2020/12/15 01:05:35;;;;;;;3.65;1.70;;;11.40;93.20;;;;;;2122727;27;20015;-77
2020/12/15 01:06:35;;;;;;;2.17;1.55;;;11.40;93.20;;;;;;2122328;27;20048;-77
2020/12/15 01:07:36;;;;;;;1.83;1.52;;;11.40;93.20;;;;;;2113434;28;20019;-77
2020/12/15 01:08:36;;;;;;;2.45;1.35;;;11.30;93.20;;;;;;2113374;28;20552;-78
2020/12/15 01:09:37;;;;;;;1.63;1.52;;;11.40;93.50;;;;;;2122640;27;20543;-77
2020/12/15 01:10:37;;;;;;;2.15;1.65;;;11.40;93.60;;;;;;2113536;28;20020;-77
2020/12/15 01:11:38;;;;;;;3.83;1.73;;;11.40;93.70;;;;;;2104530;28;20020;-77
2020/12/15 01:12:39;;;;;;;2.08;1.30;;;11.40;93.50;;;;;;2113062;28;20028;-78
2020/12/15 01:13:39;;;;;;;2.00;1.42;;;11.40;93.80;;;;;;2122715;27;20064;-77
2020/12/15 01:14:40;;;;;;;3.03;1.40;;;11.40;94.00;;;;;;2122433;27;20031;-78
2020/12/15 01:15:40;;;;;;;1.75;1.60;;;11.40;94.10;;;;;;2122569;27;20023;-78
2020/12/15 01:16:41;;;;;;;3.15;1.60;;;11.30;94.00;;;;;;2122708;27;20015;-76
2020/12/15 01:17:41;;;;;;;1.95;1.30;;;11.40;94.20;;;;;;2122429;27;20061;-77
2020/12/15 01:18:42;;;;;;;1.80;1.30;;;11.40;94.50;;;;;;2122644;27;20352;-78
2020/12/15 01:19:42;;;;;;;2.25;1.60;;;11.30;94.40;;;;;;2122602;27;20125;-77
2020/12/15 01:20:43;;;;;;;2.83;1.42;;;11.30;94.50;;;;;;2122351;27;20023;-76
2020/12/15 01:21:44;;;;;;;2.03;1.70;;;11.40;94.90;;;;;;2112391;28;20107;-76
2020/12/15 01:22:44;;;;;;;2.38;1.63;;;11.30;95.00;;;;;;2104879;28;20118;-78
2020/12/15 01:23:45;;;;;;;1.73;1.63;;;11.40;95.20;;;;;;2104926;28;20031;-77
2020/12/15 01:24:45;;;;;;;2.75;1.40;;;11.40;95.40;;;;;;2113225;28;20479;-78
2020/12/15 01:25:46;;;;;;;2.80;1.60;;;11.30;95.50;;;;;;2122577;27;20030;-77
2020/12/15 01:26:47;;;;;;;2.05;1.50;;;11.40;95.80;;;;;;2113117;28;20215;-78
2020/12/15 01:27:47;;;;;;;3.35;1.83;;;11.40;95.60;;;;;;2113244;28;20047;-78
2020/12/15 01:28:48;;;;;;;3.35;1.80;;;11.30;95.70;;;;;;2113420;28;20386;-78
2020/12/15 01:29:48;;;;;;;2.20;1.67;;;11.30;96.00;;;;;;2113303;28;20532;-77
2020/12/15 01:30:49;;;;;;;2.45;1.63;;;11.30;96.10;;;;;;2122448;27;20034;-77
2020/12/15 01:31:50;;;;;;;1.55;1.45;;;11.30;96.20;;;;;;2122052;27;20031;-77
2020/12/15 01:32:50;;;;;;;2.25;1.77;;;11.30;96.40;;;;;;2122187;27;20031;-78
2020/12/15 01:33:52;;;;;;;1.42;1.25;;;11.30;96.60;;;;;;2122658;27;20391;-79
2020/12/15 01:34:53;;;;;;;2.30;1.60;;;11.30;96.70;;;;;;2121992;27;20068;-77
2020/12/15 01:35:54;;;;;;;3.55;2.00;;;11.30;96.70;;;;;;2122419;27;20160;-78
2020/12/15 01:36:56;;;;;;;1.65;1.50;;;11.30;96.90;;;;;;2122439;27;20101;-79
2020/12/15 01:37:56;;;;;;;1.90;1.58;;;11.30;97.00;;;;;;2122169;27;20023;-80
2020/12/15 01:38:58;;;;;;;2.28;1.73;;;11.30;97.20;;;;;;2122576;27;20102;-79
2020/12/15 01:39:58;;;;;;;1.80;1.58;;;11.20;97.30;;;;;;2113122;28;20495;-79
2020/12/15 01:40:59;;;;;;;1.80;1.70;;;11.20;97.40;;;;;;2104739;28;20020;-77
2020/12/15 01:41:59;;;;;;;2.17;1.70;;;11.20;97.70;;;;;;2113095;28;20065;-78
2020/12/15 01:43:00;;;;;;;2.03;1.40;;;11.20;97.80;;;;;;2112741;28;20020;-78
2020/12/15 01:44:02;;;;;;;1.70;1.60;;;11.20;97.80;;;;;;2104016;28;20305;-79
2020/12/15 01:45:04;;;;;;;2.65;1.80;;;11.20;98.00;;;;;;2113513;28;20056;-79
2020/12/15 01:46:05;;;;;;;2.58;1.67;;;11.10;98.20;;;;;;2113093;28;20365;-78
2020/12/15 01:47:05;;;;;;;2.03;1.67;;;11.10;98.30;;;;;;2113043;28;20020;-77
2020/12/15 01:48:06;;;;;;;3.17;2.00;;;11.10;98.30;;;;;;2121460;27;20027;-78
2020/12/15 01:49:08;;;;;;;2.33;1.80;;;11.10;98.40;;;;;;2121651;27;20023;-78
2020/12/15 01:50:09;;;;;;;2.00;1.70;;;11.10;98.50;;;;;;2122135;27;20023;-77
2020/12/15 01:51:09;;;;;;;1.70;1.50;;;11.10;98.50;;;;;;2122232;27;20022;-77
2020/12/15 01:52:13;;;;;;;2.17;1.83;;;11.10;98.60;;;;;;2121934;27;20032;-77
2020/12/15 01:53:13;;;;;;;1.83;1.73;;;11.10;98.70;;;;;;2122200;27;20129;-79
2020/12/15 01:54:14;;;;;;;2.95;1.88;;;11.10;98.70;;;;;;2122216;27;20624;-79
2020/12/15 01:55:17;;;;;;;3.33;1.95;;;11.10;98.80;;;;;;2122276;27;20471;-77
2020/12/15 01:56:18;;;;;;;1.58;1.48;;;11.10;98.90;;;;;;2122268;27;20023;-77
2020/12/15 01:57:18;;;;;;;1.80;1.65;;;11.10;98.90;;;;;;2112894;28;20600;-78
2020/12/15 01:58:19;;;;;;;3.08;2.00;;;11.10;98.90;;;;;;2113185;28;20059;-78
2020/12/15 01:59:22;;;;;;;2.38;1.75;;;11.10;99.00;;;;;;2112932;28;20451;-77
2020/12/15 02:00:22;;;;;;;2.63;1.85;;;11.00;99.10;;;;;;2104743;28;20031;-78
2020/12/15 02:01:24;;;;;;;2.55;1.88;;;11.00;99.20;;;;;;2112550;28;20020;-79
2020/12/15 02:02:25;;;;;;;2.55;1.92;;;11.00;99.30;;;;;;2113266;28;20024;-77
2020/12/15 02:03:25;;;;;;;2.03;1.50;;;11.00;99.40;;;;;;2104324;28;20028;-78
2020/12/15 02:04:26;;;;;;;1.83;1.40;;;11.00;99.40;;;;;;2113150;28;20047;-79
2020/12/15 02:05:26;;;;;;;1.80;1.70;;;11.00;99.50;;;;;;2122282;27;20252;-76
2020/12/15 02:06:27;;;;;;;4.15;1.80;;;11.00;99.60;;;;;;2122069;27;20020;-79
2020/12/15 02:07:27;;;;;;;2.70;1.80;;;11.00;99.70;;;;;;2112917;28;20035;-76
2020/12/15 02:08:28;;;;;;;2.47;1.63;;;11.00;99.70;;;;;;2113315;28;20027;-76
2020/12/15 02:09:29;;;;;;;2.20;1.90;;;11.00;99.80;;;;;;2122122;27;20016;-78
2020/12/15 02:10:29;;;;;;;4.75;1.73;;;10.90;99.80;;;;;;2113086;28;20023;-78
2020/12/15 02:11:30;;;;;;;2.38;2.17;;;10.90;99.90;;;;;;2112691;28;20155;-80
2020/12/15 02:12:31;;;;;;;2.47;2.10;;;10.90;99.90;;;;;;2122076;27;20030;-78
2020/12/15 02:13:32;;;;;;;1.98;1.52;;;10.90;99.90;;;;;;2112856;28;20057;-79
2020/12/15 02:14:32;;;;;;;2.72;2.13;;;10.90;99.90;;;;;;2113214;28;20012;-76
2020/12/15 02:15:33;;;;;;;3.33;2.17;;;10.90;99.90;;;;;;2121949;27;20030;-77
2020/12/15 02:16:34;;;;;;;2.90;1.83;;;10.90;99.90;;;;;;2113024;28;20212;-78
2020/12/15 02:17:34;;;;;;;1.85;1.75;;;10.90;99.90;;;;;;2113133;28;20080;-79
2020/12/15 02:18:35;;;;;;;2.63;1.85;;;10.80;99.90;;;;;;2122065;27;20102;-78
2020/12/15 02:19:36;;;;;;;2.55;1.92;;;10.80;99.90;;;;;;2121736;27;20090;-78
2020/12/15 02:20:39;;;;;;;4.20;1.75;;;10.80;99.90;;;;;;2122345;27;20027;-77
2020/12/15 02:21:54;;;;;;;1.98;1.63;;;10.80;99.90;;;;;;2112180;28;20376;-76
2020/12/15 02:22:54;;;;;;;2.22;1.90;;;10.80;99.90;;;;;;2115082;27;20020;-78
2020/12/15 02:23:55;;;;;;;3.70;1.98;;;10.70;99.90;;;;;;2121991;27;20052;-77
2020/12/15 02:24:55;;;;;;;2.63;1.90;;;10.70;99.90;;;;;;2122192;27;20030;-77
2020/12/15 02:25:56;;;;;;;3.20;1.75;;;10.70;99.90;;;;;;2112935;28;20488;-77
2020/12/15 02:26:57;;;;;;;2.88;2.00;;;10.70;99.90;;;;;;2112984;28;20398;-79
2020/12/15 02:27:57;;;;;;;1.90;1.70;;;10.70;99.90;;;;;;2122001;27;20098;-79
2020/12/15 02:28:58;;;;;;;2.08;1.67;;;10.70;99.90;;;;;;2121937;27;20274;-79
2020/12/15 02:29:58;;;;;;;3.53;1.88;;;10.70;99.90;;;;;;2112574;28;20024;-77
2020/12/15 02:30:59;;;;;;;4.05;1.98;;;10.60;99.90;;;;;;2113124;28;20116;-79
2020/12/15 02:31:59;;;;;;;2.95;2.10;;;10.60;99.90;;;;;;2112615;28;20428;-78
2020/12/15 02:33:00;;;;;;;2.58;2.03;;;10.60;99.90;;;;;;2112934;28;20050;-79
2020/12/15 02:34:01;;;;;;;2.17;1.83;;;10.60;99.90;;;;;;2122206;27;20023;-76
2020/12/15 02:35:02;;;;;;;3.42;2.28;;;10.60;99.90;;;;;;2112886;28;20031;-78
2020/12/15 02:36:03;;;;;;;2.13;1.83;;;10.60;99.90;;;;;;2112835;28;20028;-77
2020/12/15 02:37:10;;;;;;;4.93;2.00;;;10.50;99.90;;;;;;2122018;28;20019;-78
2020/12/15 02:38:11;;;;;;;3.90;2.17;;;10.50;99.90;;;;;;2121961;28;20697;-78
2020/12/15 02:39:13;;;;;;;8.75;2.67;;;10.60;99.90;;;;;;2121801;28;20046;-79
2020/12/15 02:40:14;;;;;;;3.42;2.28;;;10.50;99.90;;;;;;2121869;28;20027;-78
2020/12/15 02:41:14;;;;;;;4.07;2.67;;;10.60;99.90;;;;;;2121833;28;20015;-76
2020/12/15 02:42:15;;;;;;;2.10;1.90;;;10.50;99.90;;;;;;2112363;28;20022;-77
2020/12/15 02:43:16;;;;;;;2.33;1.85;;;10.60;99.90;;;;;;2112932;28;20145;-77
2020/12/15 02:44:16;;;;;;;3.33;2.08;;;10.50;99.90;;;;;;2121992;28;20019;-77
2020/12/15 02:45:17;;;;;;;1.75;1.65;;;10.50;99.90;;;;;;2122070;28;20270;-78
2020/12/15 02:46:17;;;;;;;2.15;1.95;;;10.50;99.90;;;;;;2112705;28;20350;-77
2020/12/15 02:47:18;;;;;;;2.15;1.90;;;10.50;99.90;;;;;;2104876;28;20024;-79
2020/12/15 02:48:18;;;;;;;2.85;1.85;;;10.60;99.90;;;;;;2114572;28;20384;-76
2020/12/15 02:49:19;;;;;;;3.60;2.25;;;10.50;99.90;;;;;;2111348;28;20380;-79
2020/12/15 02:50:24;;;;;;;2.97;1.83;;;10.60;99.90;;;;;;2123675;27;20421;-78
2020/12/15 02:51:25;;;;;;;2.67;2.25;;;10.60;99.90;;;;;;2123155;27;20476;-77
2020/12/15 02:52:26;;;;;;;3.22;2.28;;;10.60;99.90;;;;;;2123564;27;20031;-78
2020/12/15 02:53:27;;;;;;;4.00;2.40;;;10.60;99.90;;;;;;2123524;27;20490;-79
2020/12/15 02:54:27;;;;;;;3.47;2.33;;;10.60;99.90;;;;;;2124071;27;20027;-78
2020/12/15 02:55:28;;;;;;;2.38;2.08;;;10.60;99.90;;;;;;2123601;27;20085;-79
2020/12/15 02:56:28;;;;;;;2.45;2.25;;;10.60;99.90;;;;;;2123817;27;20243;-77
2020/12/15 02:57:29;;;;;;;2.97;2.40;;;10.60;99.90;;;;;;2123598;27;20019;-78
2020/12/15 02:58:29;;;;;;;2.38;1.95;;;10.60;99.90;;;;;;2123802;27;20424;-77
2020/12/15 02:59:30;;;;;;;2.28;2.08;;;10.60;99.90;;;;;;2123468;27;20027;-78
2020/12/15 03:00:30;;;;;;;4.60;2.30;;;10.60;99.90;;;;;;2123706;27;20491;-77
2020/12/15 03:01:31;;;;;;;3.92;1.90;;;10.50;99.90;;;;;;2113952;28;20065;-76
2020/12/15 03:02:31;;;;;;;2.38;2.08;;;10.50;99.90;;;;;;2114538;28;20020;-77
2020/12/15 03:03:32;;;;;;;3.83;2.10;;;10.60;99.90;;;;;;2113978;28;20027;-79
2020/12/15 03:04:32;;;;;;;2.55;2.35;;;10.50;99.90;;;;;;2106064;28;20024;-77
2020/12/15 03:05:33;;;;;;;2.25;1.90;;;10.50;99.90;;;;;;2114127;28;20525;-79
2020/12/15 03:06:34;;;;;;;2.50;2.30;;;10.60;99.90;;;;;;2114236;28;20022;-78
2020/12/15 03:07:34;;;;;;;2.70;2.03;;;10.60;99.90;;;;;;2114592;28;20074;-77
2020/12/15 03:08:35;;;;;;;4.18;2.60;;;10.60;99.90;;;;;;2122670;27;20467;-77
2020/12/15 03:09:36;;;;;;;2.33;2.13;;;10.60;99.90;;;;;;2123050;27;20023;-76
2020/12/15 03:10:36;;;;;;;2.45;2.25;;;10.50;99.90;;;;;;2123052;27;20110;-78
2020/12/15 03:11:37;;;;;;;3.80;2.38;;;10.50;99.90;;;;;;2122667;27;20015;-79
2020/12/15 03:12:38;;;;;;;2.75;2.20;;;10.50;99.90;;;;;;2123516;27;20074;-78
2020/12/15 03:13:38;;;;;;;3.50;2.50;;;10.60;99.90;;;;;;2123643;27;20020;-79
2020/12/15 03:14:39;;;;;;;2.33;2.08;;;10.50;99.90;;;;;;2123377;27;20027;-78
2020/12/15 03:15:39;;;;;;;2.70;2.17;;;10.50;99.90;;;;;;2114226;28;20356;-80
2020/12/15 03:16:40;;;;;;;3.05;2.33;;;10.50;99.90;;;;;;2106079;28;20511;-77
2020/12/15 03:17:41;;;;;;;2.33;2.00;;;10.50;99.90;;;;;;2114416;28;20494;-79
2020/12/15 03:18:41;;;;;;;2.60;2.10;;;10.50;99.90;;;;;;2122926;27;20255;-78
2020/12/15 03:19:42;;;;;;;3.13;2.47;;;10.50;99.90;;;;;;2114180;28;20472;-79
2020/12/15 03:20:47;;;;;;;2.65;2.45;;;10.50;99.90;;;;;;2114424;27;20049;-79
2020/12/15 03:21:47;;;;;;;2.55;2.30;;;10.50;99.90;;;;;;2123026;27;20379;-79
2020/12/15 03:22:48;;;;;;;2.80;2.40;;;10.50;99.90;;;;;;2114285;28;20106;-77
2020/12/15 03:23:48;;;;;;;2.35;2.00;;;10.50;99.90;;;;;;2105987;28;20016;-80
2020/12/15 03:24:49;;;;;;;3.10;2.03;;;10.50;99.90;;;;;;2105839;28;20488;-77
2020/12/15 03:25:52;;;;;;;2.80;2.28;;;10.50;99.90;;;;;;2114227;28;20052;-79
2020/12/15 03:26:53;;;;;;;2.60;2.40;;;10.50;99.90;;;;;;2123437;27;20022;-78
2020/12/15 03:27:53;;;;;;;2.47;2.28;;;10.50;99.90;;;;;;2123512;27;20379;-79
2020/12/15 03:28:54;;;;;;;3.17;2.60;;;10.40;99.90;;;;;;2114344;28;20043;-77
2020/12/15 03:29:55;;;;;;;4.43;2.70;;;10.40;99.90;;;;;;2114394;28;20077;-78
2020/12/15 03:30:55;;;;;;;3.45;2.17;;;10.40;99.90;;;;;;2113989;28;20054;-77
2020/12/15 03:31:56;;;;;;;2.85;2.58;;;10.40;99.90;;;;;;2105211;28;20054;-80
2020/12/15 03:32:56;;;;;;;3.20;2.60;;;10.40;99.90;;;;;;2114518;28;20122;-78
2020/12/15 03:33:57;;;;;;;2.50;2.28;;;10.50;99.90;;;;;;2123364;27;20023;-77
2020/12/15 03:34:57;;;;;;;3.30;2.60;;;10.50;99.90;;;;;;2114237;28;20091;-77
2020/12/15 03:35:58;;;;;;;3.80;2.50;;;10.50;99.90;;;;;;2105832;28;20478;-75
2020/12/15 03:36:58;;;;;;;2.40;2.22;;;10.50;99.90;;;;;;2105767;28;20353;-77
2020/12/15 03:37:59;;;;;;;2.78;2.58;;;10.50;99.90;;;;;;2114212;28;20028;-79
2020/12/15 03:39:00;;;;;;;3.00;2.70;;;10.50;99.90;;;;;;2123381;27;20023;-81
2020/12/15 03:40:00;;;;;;;4.20;2.95;;;10.50;99.90;;;;;;2123337;27;20034;-80
2020/12/15 03:41:01;;;;;;;2.78;2.47;;;10.50;99.90;;;;;;2114072;28;20027;-79
2020/12/15 03:42:02;;;;;;;3.60;3.15;;;10.50;99.90;;;;;;2113748;28;20027;-77
2020/12/15 03:43:03;;;;;;;3.83;2.65;;;10.50;99.90;;;;;;2114279;28;20100;-76
2020/12/15 03:44:03;;;;;;;3.17;2.35;;;10.50;99.90;;;;;;2114127;28;20415;-78
2020/12/15 03:45:05;;;;;;;5.57;3.33;;;10.50;99.90;;;;;;2123385;27;20131;-79
2020/12/15 03:46:05;;;;;;;2.72;2.42;;;10.50;99.90;;;;;;2114078;28;20073;-76
2020/12/15 03:47:06;;;;;;;3.08;2.42;;;10.50;99.90;;;;;;2114187;28;20023;-77
2020/12/15 03:48:06;;;;;;;2.50;2.30;;;10.50;99.90;;;;;;2123259;27;20025;-78
2020/12/15 03:49:07;;;;;;;3.72;2.88;;;10.50;99.90;;;;;;2123393;27;20058;-77
2020/12/15 03:50:10;;;;;;;3.90;2.88;;;10.50;99.90;;;;;;2123054;27;20019;-77
2020/12/15 03:51:11;;;;;;;2.70;2.40;;;10.50;99.90;;;;;;2123193;27;20023;-78
2020/12/15 03:52:11;;;;;;;3.88;2.78;;;10.50;99.90;;;;;;2122846;27;20042;-76
2020/12/15 03:53:12;;;;;;;2.70;2.50;;;10.50;99.90;;;;;;2114233;28;20490;-76
2020/12/15 03:54:13;;;;;;;3.38;2.88;;;10.50;99.90;;;;;;2113905;28;20036;-77
2020/12/15 03:55:13;;;;;;;3.25;2.67;;;10.50;99.90;;;;;;2123540;27;20079;-79
2020/12/15 03:56:14;;;;;;;3.90;2.83;;;10.50;99.90;;;;;;2123106;27;20027;-76
2020/12/15 03:57:15;;;;;;;4.32;2.92;;;10.50;99.90;;;;;;2123197;27;20341;-78
2020/12/15 03:58:17;;;;;;;2.63;2.42;;;10.50;99.90;;;;;;2113716;28;20114;-77
2020/12/15 03:59:17;;;;;;;3.38;2.80;;;10.50;99.90;;;;;;2114207;28;20042;-78
2020/12/15 04:00:19;;;;;;;2.92;2.33;;;10.50;99.90;;;;;;2123045;27;20051;-77
2020/12/15 04:01:20;;;;;;;3.25;2.85;;;10.60;99.90;;;;;;2123356;27;20090;-78
2020/12/15 04:02:20;;;;;;;3.67;2.90;;;10.50;99.90;;;;;;2122866;27;20034;-76
2020/12/15 04:03:21;;;;;;;3.22;2.70;;;10.50;99.90;;;;;;2114033;28;20027;-76
2020/12/15 04:04:21;;;;;;;2.90;2.70;;;10.60;99.90;;;;;;2113880;28;20023;-79
2020/12/15 04:05:22;;;;;;;3.50;3.20;;;10.60;99.90;;;;;;2113997;28;20072;-77
2020/12/15 04:06:22;;;;;;;3.50;3.05;;;10.50;99.90;;;;;;2113923;28;20106;-77
2020/12/15 04:07:23;;;;;;;3.72;3.17;;;10.50;99.90;;;;;;2114044;28;20542;-75
2020/12/15 04:08:27;;;;;;;3.42;2.90;;;10.50;99.90;;;;;;2122424;27;20019;-77
2020/12/15 04:09:27;;;;;;;2.80;2.60;;;10.50;99.90;;;;;;2122590;27;20038;-78
2020/12/15 04:10:28;;;;;;;3.78;3.10;;;10.50;99.90;;;;;;2123181;27;20042;-76
2020/12/15 04:11:28;;;;;;;3.30;3.00;;;10.50;99.90;;;;;;2122629;27;20428;-77
2020/12/15 04:12:29;;;;;;;4.72;3.42;;;10.50;99.90;;;;;;2113854;28;20345;-78
2020/12/15 04:13:30;;;;;;;3.92;3.10;;;10.50;99.90;;;;;;2113980;28;20034;-77
2020/12/15 04:14:30;;;;;;;4.32;3.50;;;10.50;99.90;;;;;;2123169;27;20033;-77
2020/12/15 04:15:31;;;;;;;4.93;4.13;;;10.50;99.90;;;;;;2113977;28;20031;-77
2020/12/15 04:16:31;;;;;;;3.50;3.20;;;10.50;99.90;;;;;;2113606;28;20107;-78
2020/12/15 04:17:36;;;;;;;4.70;3.47;;;10.50;99.90;;;;;;2122990;27;20027;-78
2020/12/15 04:18:36;;;;;;;3.05;2.75;;;10.50;99.90;;;;;;2123067;27;20054;-76
2020/12/15 04:19:37;;;;;;;3.53;2.97;;;10.50;99.90;;;;;;2123005;27;20020;-79
2020/12/15 04:20:38;;;;;;;3.58;3.28;;;10.50;99.90;;;;;;2123194;27;20094;-77
2020/12/15 04:21:38;;;;;;;5.75;3.60;;;10.50;99.90;;;;;;2122779;27;20023;-78
2020/12/15 04:22:39;;;;;;;4.53;3.13;;;10.50;99.90;;;;;;2122943;27;20027;-77
2020/12/15 04:23:39;;;;;;;3.47;3.17;;;10.50;99.90;;;;;;2123030;27;20027;-78
2020/12/15 04:24:40;;;;;;;6.10;3.35;;;10.50;99.90;;;;;;2123344;27;20475;-78
2020/12/15 04:25:59;;;;;;;5.90;3.28;;;10.60;99.90;;;;;;2113750;28;20487;-77
2020/12/15 04:26:59;;;;;;;4.93;3.35;;;10.50;99.90;;;;;;2116412;27;20071;-77
2020/12/15 04:28:00;;;;;;;3.55;3.22;;;10.50;99.90;;;;;;2123100;27;20106;-78
2020/12/15 04:29:00;;;;;;;3.33;3.03;;;10.50;99.90;;;;;;2113788;28;20054;-77
2020/12/15 04:30:01;;;;;;;3.78;3.47;;;10.50;99.90;;;;;;2105305;28;20028;-76
2020/12/15 04:31:02;;;;;;;3.90;3.50;;;10.50;99.90;;;;;;2113855;28;20485;-76
2020/12/15 04:32:02;;;;;;;4.15;3.47;;;10.50;99.90;;;;;;2122698;27;20092;-76
2020/12/15 04:33:03;;;;;;;4.22;3.42;;;10.50;99.90;;;;;;2122993;27;20051;-78
2020/12/15 04:34:04;;;;;;;5.80;3.92;;;10.50;99.90;;;;;;2122655;27;20233;-76
2020/12/15 04:35:05;;;;;;;3.50;3.20;;;10.50;99.90;;;;;;2123011;27;20015;-79
2020/12/15 04:36:05;;;;;;;3.78;3.28;;;10.50;99.90;;;;;;2122685;27;20547;-78
2020/12/15 04:37:06;;;;;;;7.30;3.55;;;10.50;99.90;;;;;;2113634;28;20269;-78
2020/12/15 04:38:07;;;;;;;3.50;3.20;;;10.50;99.90;;;;;;2113713;28;20391;-78
2020/12/15 04:39:08;;;;;;;4.57;4.00;;;10.50;99.90;;;;;;2113868;28;20019;-78
2020/12/15 04:40:08;;;;;;;4.85;3.47;;;10.50;99.90;;;;;;2113227;28;20039;-76
2020/12/15 04:41:09;;;;;;;4.35;3.33;;;10.50;99.90;;;;;;2113930;28;20484;-77
2020/12/15 04:42:09;;;;;;;4.10;3.63;;;10.50;99.90;;;;;;2113445;28;20019;-76
2020/12/15 04:43:11;;;;;;;5.05;3.63;;;10.50;99.90;;;;;;2122859;27;20064;-77
2020/12/15 04:44:12;;;;;;;4.28;3.85;;;10.50;99.90;;;;;;2122624;27;20015;-75
2020/12/15 04:45:12;;;;;;;4.30;3.88;;;10.60;99.90;;;;;;2123063;27;20026;-77
2020/12/15 04:46:18;;;;;;;3.90;3.50;;;10.50;99.90;;;;;;2122618;27;20064;-78
2020/12/15 04:47:42;;;;;;;3.90;3.53;;;10.60;99.90;;;;;;2113665;28;20115;-76
2020/12/15 04:48:48;;;;;;;4.05;3.53;;;10.50;99.90;;;;;;2104970;27;20031;-78
2020/12/15 04:49:58;;;;;;;4.18;3.35;;;10.50;99.90;;;;;;2122553;27;20448;-78
2020/12/15 04:50:59;;;;;;;3.60;3.30;;;10.50;99.90;;;;;;2122945;27;20088;-77
2020/12/15 04:52:05;;;;;;;5.00;3.35;;;10.50;99.90;;;;;;2122251;27;20223;-78
2020/12/15 04:53:10;;;;;;;5.90;3.60;;;10.40;99.90;;;;;;2122818;27;20026;-77
2020/12/15 04:54:16;;;;;;;3.83;3.53;;;10.40;99.90;;;;;;2113520;28;20027;-76
2020/12/15 04:55:18;;;;;;;4.43;3.53;;;10.40;99.90;;;;;;2113821;28;20028;-78
2020/12/15 04:56:28;;;;;;;4.35;3.60;;;10.40;99.90;;;;;;2113683;28;20032;-76
2020/12/15 04:57:28;;;;;;;5.15;3.60;;;10.40;99.90;;;;;;2122593;27;20020;-79
2020/12/15 04:58:32;;;;;;;5.13;3.70;;;10.40;99.90;;;;;;2122963;27;20499;-76
2020/12/15 04:59:34;;;;;;;5.40;3.80;;;10.40;99.90;;;;;;2122506;27;20353;-78
2020/12/15 05:00:35;;;;;;;4.70;3.80;;;10.40;99.90;;;;;;2122586;27;20023;-77
2020/12/15 05:01:38;;;;;;;4.70;4.30;;;10.40;99.90;;;;;;2122352;27;20050;-78
2020/12/15 05:02:44;;;;;;;4.80;3.83;;;10.40;99.90;;;;;;2113282;28;20024;-78
2020/12/15 05:03:46;;;;;;;4.55;4.10;;;10.40;99.90;;;;;;2105536;28;20017;-75
2020/12/15 05:04:50;;;;;;;4.25;3.42;;;10.40;99.90;;;;;;2105288;28;20462;-76
2020/12/15 05:05:50;;;;;;;4.38;3.90;;;10.40;99.90;;;;;;2105513;28;20028;-78
2020/12/15 05:06:55;;;;;;;6.15;3.92;;;10.40;99.90;;;;;;2113451;28;20027;-77
2020/12/15 05:08:00;;;;;;;4.28;3.88;;;10.40;99.90;;;;;;2122382;27;20033;-77
2020/12/15 05:09:03;;;;;;;5.85;4.15;;;10.40;99.90;;;;;;2122540;27;20313;-77
2020/12/15 05:10:04;;;;;;;4.65;3.65;;;10.40;99.90;;;;;;2121725;27;20034;-76
2020/12/15 05:11:04;;;;;;;5.15;3.65;;;10.30;99.90;;;;;;2122802;27;20018;-78
2020/12/15 05:12:06;;;;;;;6.30;4.45;;;10.40;99.90;;;;;;2122295;27;20073;-76
2020/12/15 05:13:06;;;;;;;6.97;4.13;;;10.40;99.90;;;;;;2113492;28;20011;-77
2020/12/15 05:14:07;;;;;;;5.35;3.58;;;10.40;99.90;;;;;;2113414;28;20044;-76
2020/12/15 05:15:12;;;;;;;3.97;3.67;;;10.40;99.90;;;;;;2122416;27;20023;-77
2020/12/15 05:16:13;;;;;;;6.05;3.80;;;10.40;99.90;;;;;;2122504;27;20562;-78
2020/12/15 05:17:23;;;;;;;5.95;4.30;;;10.40;99.90;;;;;;2122324;27;20019;-77
2020/12/15 05:18:23;;;;;;;4.95;3.70;;;10.40;99.90;;;;;;2122489;27;20115;-76
2020/12/15 05:19:24;;;;;;;4.90;3.40;;;10.40;99.90;;;;;;2122587;27;20420;-75